• Guest, pentru o varianta fara reclame a forumului oferim conturi premium. Mai multe detalii aici.

Zsolt

King Nothing
Staff member
fly-ra 2017
Feb 12, 2012
6,874
2,340
113
40
NZNV
flightradar24 feed id
My fr24 statistics
flightaware feed
My flightaware feed
Flightdiary
My fr24 profile
Conform informatiilor este vorba de un elicopter care zbura din Moldova catre Turcia. El era acompaniat de un alt elicopter, care a aterizat imediat in zona incidentului. La bord se aflau 8 persoane, din care 5 au decedat iar 3 ranite.
Nu se stie exact cand a avut loc accidentul.
METAR-ul de la TULCEA nu indica conditii meteo nefavorabile, doar niste CB dimineata:
Code:
METAR LRTC 260800Z 01008KT 9999 SCT050CB 15/11 Q1016 1629//95=
METAR LRTC 260830Z 35004KT 320V050 9999 FEW050CB 15/11 Q1016 1629//95=
METAR LRTC 260900Z 03010KT 9999 FEW012 FEW050CB 15/12 Q1016 1629//95=
METAR LRTC 260930Z 03008KT 350V050 9999 FEW030 16/11 Q1016 16CLRD//=
METAR LRTC 261000Z VRB02KT 9999 FEW030 18/11 Q1016=
METAR LRTC 261030Z VRB02KT 9999 SCT031 19/10 Q1016=
METAR LRTC 261100Z VRB02KT 9999 SCT034 18/11 Q1016=
METAR LRTC 261130Z VRB02KT 9999 FEW035 20/11 Q1016=
METAR LRTC 261200Z VRB04KT 9999 FEW037 19/10 Q1016=
METAR LRTC 261230Z 00000KT 9999 SCT038 19/10 Q1016=
METAR LRTC 261300Z 02004KT 340V060 9999 FEW039 19/10 Q1016=
METAR LRTC 261330Z 02004KT 320V070 9999 FEW040 19/11 Q1016=
METAR LRTC 261400Z VRB02KT 9999 FEW040 20/10 Q1016=
METAR LRTC 261430Z 25006KT 220V280 9999 FEW040 20/09 Q1016=
LE
Era KA26

LE2
pax 5/5 decedati.
 

Users Who Are Viewing This Thread (Total: 1, Members: 0, Guests: 1)